Time;durP1;ratioP1;P1;durP2;ratioP2;P2;SDS_P1;SDS_P2;PMS_P1;PMS_P2;Temp;Humidity;BMP_temperature;BMP_pressure;BME280_temperature;BME280_humidity;BME280_pressure;Samples;Min_cycle;Max_cycle;Signal;HPM_P1;HPM_P2
2023/05/03 00:01:28;;;;;;;;;;;;;;;20.02;52.28;97320.75;612044;230;63799;-58
2023/05/03 00:03:56;;;;;;;;;;;;;;;20.03;52.16;97316.25;615984;230;66445;-58
2023/05/03 00:06:23;;;;;;;;;;;;;;;20.02;52.00;97310.08;612796;230;66573;-58
2023/05/03 00:08:51;;;;;;;;;;;;;;;20.02;52.54;97310.08;612498;230;62952;-58
2023/05/03 00:11:18;;;;;;;;;;;;;;;20.02;52.17;97315.42;612202;230;68464;-58
2023/05/03 00:13:46;;;;;;;;;;;;;;;20.01;51.97;97305.02;614657;229;68788;-58
2023/05/03 00:16:14;;;;;;;;;;;;;;;20.02;55.16;97304.75;611273;230;65144;-58
2023/05/03 00:18:41;;;;;;;;;;;;;;;20.00;52.53;97304.22;611368;230;69062;-58
2023/05/03 00:21:08;;;;;;;;;;;;;;;20.00;52.65;97301.55;614484;229;66617;-59
2023/05/03 00:23:36;;;;;;;;;;;;;;;20.00;51.96;97301.55;611662;230;63802;-59
2023/05/03 00:26:03;;;;;;;;;;;;;;;20.01;52.35;97297.02;612862;230;68767;-59
2023/05/03 00:28:31;;;;;;;;;;;;;;;20.01;52.09;97307.69;611427;230;68637;-59
2023/05/03 00:31:00;;;;;;;;;;;;;;;20.00;52.43;97312.23;611292;227;65852;-59
2023/05/03 00:33:28;;;;;;;;;;;;;;;20.00;51.98;97316.73;611544;230;66280;-59
2023/05/03 00:35:55;;;;;;;;;;;;;;;20.01;52.22;97318.36;616181;230;68599;-59
2023/05/03 00:38:23;;;;;;;;;;;;;;;20.00;52.07;97316.73;616223;230;65998;-59
2023/05/03 00:40:53;;;;;;;;;;;;;;;20.00;52.75;97312.23;611658;230;68796;-59
2023/05/03 00:43:21;;;;;;;;;;;;;;;20.00;52.74;97320.23;613064;230;69200;-58
2023/05/03 00:45:49;;;;;;;;;;;;;;;19.99;52.02;97315.94;611453;230;65729;-59
2023/05/03 00:48:17;;;;;;;;;;;;;;;20.00;52.77;97317.56;611379;230;68550;-59
2023/05/03 00:50:46;;;;;;;;;;;;;;;19.99;53.75;97315.94;614441;227;69158;-59
2023/05/03 00:53:14;;;;;;;;;;;;;;;19.99;52.67;97315.94;612444;230;65071;-57
2023/05/03 00:55:42;;;;;;;;;;;;;;;19.99;52.64;97315.94;616572;229;66650;-58
2023/05/03 00:58:10;;;;;;;;;;;;;;;19.99;52.34;97307.94;614493;230;68497;-58
2023/05/03 01:00:38;;;;;;;;;;;;;;;19.99;52.53;97307.94;614146;230;64892;-58
2023/05/03 01:03:06;;;;;;;;;;;;;;;19.99;52.12;97315.94;615452;230;70904;-57
2023/05/03 01:05:35;;;;;;;;;;;;;;;19.98;52.97;97302.87;613033;230;66724;-57
2023/05/03 01:08:04;;;;;;;;;;;;;;;19.98;55.17;97306.34;613287;230;65106;-58
2023/05/03 01:10:33;;;;;;;;;;;;;;;19.96;52.81;97298.58;615190;230;69454;-58
2023/05/03 01:13:05;;;;;;;;;;;;;;;19.98;53.16;97302.87;612602;230;68566;-59
2023/05/03 01:15:44;;;;;;;;;;;;;;;19.98;53.38;97297.53;614309;230;65684;-58
2023/05/03 01:18:14;;;;;;;;;;;;;;;19.97;55.68;97296.73;614204;230;74479;-58
2023/05/03 01:20:43;;;;;;;;;;;;;;;19.96;53.00;97295.11;611843;230;68603;-58
2023/05/03 01:23:12;;;;;;;;;;;;;;;19.96;55.22;97289.78;615030;227;65099;-59
2023/05/03 01:25:39;;;;;;;;;;;;;;;19.97;53.69;97291.41;613232;230;73733;-59
2023/05/03 01:28:07;;;;;;;;;;;;;;;19.97;53.85;97294.07;613465;229;66532;-59
2023/05/03 01:30:35;;;;;;;;;;;;;;;19.96;53.64;97295.11;615380;230;64941;-60
2023/05/03 01:33:05;;;;;;;;;;;;;;;19.96;53.32;97295.11;616058;230;69061;-59
2023/05/03 01:35:42;;;;;;;;;;;;;;;19.95;52.94;97296.19;611527;230;68703;-59
2023/05/03 01:38:11;;;;;;;;;;;;;;;19.96;54.56;97303.12;611377;231;65066;-59
2023/05/03 01:40:40;;;;;;;;;;;;;;;19.95;55.12;97290.84;611478;231;66513;-59
2023/05/03 01:43:10;;;;;;;;;;;;;;;19.94;53.57;97289.22;610712;230;68408;-59
2023/05/03 01:45:37;;;;;;;;;;;;;;;19.94;53.10;97275.89;611331;230;62940;-60
2023/05/03 01:48:13;;;;;;;;;;;;;;;19.94;54.94;97275.89;613411;230;69308;-59
2023/05/03 01:50:41;;;;;;;;;;;;;;;19.94;53.63;97278.55;612036;230;68882;-59
2023/05/03 01:53:08;;;;;;;;;;;;;;;19.94;55.16;97275.89;611402;230;64997;-59
2023/05/03 01:55:36;;;;;;;;;;;;;;;19.93;52.62;97280.42;613280;230;68589;-58
2023/05/03 01:58:05;;;;;;;;;;;;;;;19.94;53.67;97281.22;614722;229;66075;-58
2023/05/03 02:00:32;;;;;;;;;;;;;;;19.93;57.09;97280.42;611518;230;64957;-58
2023/05/03 02:03:00;;;;;;;;;;;;;;;19.93;55.28;97266.29;611369;230;66310;-58
2023/05/03 02:05:27;;;;;;;;;;;;;;;19.92;56.49;97270.83;612173;230;66523;-59
2023/05/03 02:07:55;;;;;;;;;;;;;;;19.91;54.87;97271.87;613757;230;64847;-58
2023/05/03 02:10:22;;;;;;;;;;;;;;;19.92;57.30;97268.16;615096;230;68754;-58
2023/05/03 02:12:50;;;;;;;;;;;;;;;19.91;57.61;97250.53;611924;230;66202;-58
2023/05/03 02:15:18;;;;;;;;;;;;;;;19.91;57.02;97255.06;611404;228;62666;-58
2023/05/03 02:17:48;;;;;;;;;;;;;;;19.91;58.27;97247.86;611651;230;68865;-58
2023/05/03 02:20:15;;;;;;;;;;;;;;;19.90;58.36;97243.60;614837;230;67027;-59
2023/05/03 02:22:43;;;;;;;;;;;;;;;19.90;58.10;97258.80;613100;230;65078;-58
2023/05/03 02:25:10;;;;;;;;;;;;;;;19.90;54.52;97242.80;611325;230;68785;-58
2023/05/03 02:27:38;;;;;;;;;;;;;;;19.90;56.41;97238.27;615247;229;68622;-59
2023/05/03 02:30:06;;;;;;;;;;;;;;;19.89;55.65;97236.67;612773;230;65223;-59
2023/05/03 02:32:35;;;;;;;;;;;;;;;19.91;54.23;97247.06;616100;230;45842;-58
2023/05/03 02:35:03;;;;;;;;;;;;;;;19.91;55.16;97244.39;616252;227;68671;-59
2023/05/03 02:37:31;;;;;;;;;;;;;;;19.90;55.49;97226.80;611590;230;64930;-58
2023/05/03 02:39:59;;;;;;;;;;;;;;;19.91;54.84;97245.19;613147;230;66926;-59
2023/05/03 02:42:26;;;;;;;;;;;;;;;19.90;54.83;97250.80;616366;230;67310;-59
2023/05/03 02:44:54;;;;;;;;;;;;;;;19.90;58.21;97235.59;612491;229;65710;-59
2023/05/03 02:47:23;;;;;;;;;;;;;;;19.90;55.99;97229.47;615614;230;66167;-60
2023/05/03 02:49:50;;;;;;;;;;;;;;;19.89;55.30;97234.00;613655;230;66361;-59
2023/05/03 02:52:18;;;;;;;;;;;;;;;19.88;56.89;97221.70;614968;230;65432;-59
2023/05/03 02:54:48;;;;;;;;;;;;;;;19.89;56.90;97230.54;613118;229;68446;-59
2023/05/03 02:57:15;;;;;;;;;;;;;;;19.89;55.90;97225.20;615088;230;67104;-58
2023/05/03 02:59:43;;;;;;;;;;;;;;;19.88;56.41;97224.38;612443;228;62758;-60
2023/05/03 03:02:10;;;;;;;;;;;;;;;19.88;57.14;97223.58;614298;230;68802;-59
2023/05/03 03:04:38;;;;;;;;;;;;;;;19.87;58.34;97222.78;614789;230;69171;-60
2023/05/03 03:07:06;;;;;;;;;;;;;;;19.87;55.29;97221.98;615402;229;65729;-59
2023/05/03 03:09:34;;;;;;;;;;;;;;;19.87;54.35;97221.98;611369;230;68794;-59
2023/05/03 03:12:02;;;;;;;;;;;;;;;19.87;56.58;97216.65;611505;230;68599;-59
2023/05/03 03:14:30;;;;;;;;;;;;;;;19.87;54.91;97219.31;608910;230;64642;-59
2023/05/03 03:16:58;;;;;;;;;;;;;;;19.87;57.26;97220.11;612100;230;68810;-59
2023/05/03 03:19:25;;;;;;;;;;;;;;;19.87;56.56;97213.98;619055;226;69453;-59
2023/05/03 03:21:53;;;;;;;;;;;;;;;19.86;56.12;97212.36;618616;228;61554;-59
2023/05/03 03:24:20;;;;;;;;;;;;;;;19.87;54.19;97213.98;618022;229;68642;-59
2023/05/03 03:26:50;;;;;;;;;;;;;;;19.88;58.01;97215.58;619064;228;65903;-59
2023/05/03 03:29:18;;;;;;;;;;;;;;;19.85;55.81;97203.56;619952;227;65775;-59
2023/05/03 03:31:46;;;;;;;;;;;;;;;19.86;55.14;97201.69;617740;228;68757;-60
2023/05/03 03:34:14;;;;;;;;;;;;;;;19.86;58.31;97202.52;619624;228;66800;-59
2023/05/03 03:36:42;;;;;;;;;;;;;;;19.85;57.51;97200.89;619189;229;65770;-59
2023/05/03 03:39:10;;;;;;;;;;;;;;;19.85;57.30;97202.77;607932;230;69309;-59
2023/05/03 03:41:38;;;;;;;;;;;;;;;19.85;58.18;97210.77;612691;228;66640;-59
2023/05/03 03:44:05;;;;;;;;;;;;;;;19.84;57.08;97220.63;618075;227;62659;-59
2023/05/03 03:46:38;;;;;;;;;;;;;;;19.86;57.31;97225.69;619481;227;68816;-59
2023/05/03 03:49:07;;;;;;;;;;;;;;;19.84;58.59;97233.97;618316;227;66519;-60
2023/05/03 03:51:34;;;;;;;;;;;;;;;19.84;58.47;97235.84;620009;227;65128;-59
2023/05/03 03:54:02;;;;;;;;;;;;;;;19.84;58.91;97236.64;618713;228;69155;-60
2023/05/03 03:56:30;;;;;;;;;;;;;;;19.82;58.56;97236.08;618707;228;66531;-59
2023/05/03 03:58:57;;;;;;;;;;;;;;;19.82;56.76;97251.28;619440;228;63020;-59
2023/05/03 04:01:26;;;;;;;;;;;;;;;19.84;58.05;97241.17;619138;229;69865;-59
2023/05/03 04:03:54;;;;;;;;;;;;;;;19.83;57.47;97237.68;611147;230;67722;-59
2023/05/03 04:06:23;;;;;;;;;;;;;;;19.83;57.28;97252.88;614441;228;65217;-59
2023/05/03 04:08:50;;;;;;;;;;;;;;;19.83;57.09;97259.02;617265;228;68865;-59
2023/05/03 04:11:20;;;;;;;;;;;;;;;19.83;57.76;97264.34;617988;227;69105;-59
2023/05/03 04:13:49;;;;;;;;;;;;;;;19.83;57.19;97266.22;619458;228;43332;-59
2023/05/03 04:16:17;;;;;;;;;;;;;;;19.83;56.43;97274.22;619260;228;66050;-59
2023/05/03 04:18:45;;;;;;;;;;;;;;;19.83;55.31;97279.55;618683;227;69232;-59
2023/05/03 04:21:13;;;;;;;;;;;;;;;19.83;57.92;97282.22;613503;227;63719;-59
2023/05/03 04:23:41;;;;;;;;;;;;;;;19.83;57.22;97279.55;611792;228;69213;-59
2023/05/03 04:26:10;;;;;;;;;;;;;;;19.83;57.00;97282.22;619120;227;67335;-60
2023/05/03 04:28:38;;;;;;;;;;;;;;;19.82;56.32;97292.09;618975;228;62570;-59
2023/05/03 04:31:06;;;;;;;;;;;;;;;19.82;55.18;97293.95;619510;228;67353;-59
2023/05/03 04:33:35;;;;;;;;;;;;;;;19.83;57.08;97284.88;618138;227;66113;-59
2023/05/03 04:36:05;;;;;;;;;;;;;;;19.82;58.43;97285.95;621117;227;65684;-59
2023/05/03 04:38:33;;;;;;;;;;;;;;;19.82;56.22;97294.75;617995;229;69193;-60
2023/05/03 04:41:01;;;;;;;;;;;;;;;19.82;57.14;97293.95;619394;228;68351;-59
2023/05/03 04:43:29;;;;;;;;;;;;;;;19.82;56.87;97283.29;618952;227;63005;-59
2023/05/03 04:45:57;;;;;;;;;;;;;;;19.82;56.45;97304.63;619815;227;66358;-59
2023/05/03 04:48:27;;;;;;;;;;;;;;;19.81;58.65;97293.16;619171;229;67658;-59
2023/05/03 04:50:55;;;;;;;;;;;;;;;19.81;56.50;97293.16;619122;229;64968;-59
2023/05/03 04:53:23;;;;;;;;;;;;;;;19.81;58.13;97301.16;619020;229;68879;-59
2023/05/03 04:56:01;;;;;;;;;;;;;;;19.80;57.92;97302.20;619152;227;45925;-58
2023/05/03 04:58:30;;;;;;;;;;;;;;;19.80;57.68;97312.07;619111;227;65877;-58
2023/05/03 05:00:57;;;;;;;;;;;;;;;19.79;58.61;97321.94;618736;227;68812;-58
2023/05/03 05:03:27;;;;;;;;;;;;;;;19.79;57.97;97339.81;618987;227;46032;-59
2023/05/03 05:05:54;;;;;;;;;;;;;;;19.80;57.95;97344.88;619133;228;63687;-58
2023/05/03 05:08:23;;;;;;;;;;;;;;;19.79;58.84;97340.61;619187;229;67114;-57
2023/05/03 05:10:52;;;;;;;;;;;;;;;19.79;57.27;97343.27;619044;229;47091;-57
2023/05/03 05:13:21;;;;;;;;;;;;;;;19.80;56.95;97368.08;619169;229;43145;-58
2023/05/03 05:15:49;;;;;;;;;;;;;;;19.80;58.76;97360.08;619191;229;69014;-58
2023/05/03 05:18:17;;;;;;;;;;;;;;;19.78;58.79;97368.34;618545;228;68571;-58
2023/05/03 05:20:44;;;;;;;;;;;;;;;19.78;57.41;97357.67;618953;228;62787;-58
2023/05/03 05:23:12;;;;;;;;;;;;;;;19.78;56.64;97364.84;611994;228;69394;-58
2023/05/03 05:25:41;;;;;;;;;;;;;;;19.78;58.72;97357.67;619644;228;69413;-59
2023/05/03 05:28:10;;;;;;;;;;;;;;;19.78;59.27;97356.84;619216;229;65029;-58
2023/05/03 05:30:38;;;;;;;;;;;;;;;19.77;59.55;97364.05;618272;228;66601;-59
2023/05/03 05:33:06;;;;;;;;;;;;;;;19.77;59.56;97376.58;618391;227;69385;-58
2023/05/03 05:35:34;;;;;;;;;;;;;;;19.76;59.56;97370.45;619403;227;65013;-58
2023/05/03 05:38:02;;;;;;;;;;;;;;;19.76;58.04;97382.98;619626;228;68777;-59
2023/05/03 05:40:29;;;;;;;;;;;;;;;19.76;57.80;97386.45;619452;228;69541;-58
2023/05/03 05:42:57;;;;;;;;;;;;;;;19.77;58.86;97395.25;618080;228;65622;-58
2023/05/03 05:45:25;;;;;;;;;;;;;;;19.77;59.31;97387.25;619620;228;69382;-58
2023/05/03 05:47:56;;;;;;;;;;;;;;;19.77;59.12;97387.25;618804;228;69220;-59
2023/05/03 05:50:23;;;;;;;;;;;;;;;19.76;59.63;97391.79;618514;228;62631;-58
2023/05/03 05:52:53;;;;;;;;;;;;;;;19.76;59.46;97386.45;619088;229;45939;-58
2023/05/03 05:55:21;;;;;;;;;;;;;;;19.76;59.89;97394.45;618849;228;68604;-58
2023/05/03 05:57:50;;;;;;;;;;;;;;;19.74;55.88;97388.56;619018;228;62528;-59
2023/05/03 06:00:20;;;;;;;;;;;;;;;19.76;60.12;97386.45;618585;228;68919;-59
2023/05/03 06:02:47;;;;;;;;;;;;;;;19.74;59.75;97389.36;618878;228;66673;-59
2023/05/03 06:05:18;;;;;;;;;;;;;;;19.76;53.69;97390.98;617868;228;43399;-59
2023/05/03 06:07:46;;;;;;;;;;;;;;;19.78;54.18;97384.34;614850;227;69612;-59
2023/05/03 06:10:13;;;;;;;;;;;;;;;19.79;55.15;97395.81;618899;228;66329;-59
2023/05/03 06:12:42;;;;;;;;;;;;;;;19.78;53.24;97395.02;617778;228;42206;-59
2023/05/03 06:15:12;;;;;;;;;;;;;;;19.80;52.49;97402.74;617692;228;47104;-58
2023/05/03 06:17:39;;;;;;;;;;;;;;;19.82;52.41;97405.97;614014;229;69445;-59
2023/05/03 06:20:15;;;;;;;;;;;;;;;19.83;52.15;97402.23;617176;227;65005;-59
2023/05/03 06:22:43;;;;;;;;;;;;;;;19.85;52.54;97400.13;619534;227;65884;-59
2023/05/03 06:25:13;;;;;;;;;;;;;;;19.86;51.92;97386.55;618314;228;69184;-59
2023/05/03 06:27:43;;;;;;;;;;;;;;;19.88;51.82;97389.74;617927;228;65027;-59
2023/05/03 06:30:11;;;;;;;;;;;;;;;19.89;52.41;97387.91;619314;228;69412;-58
2023/05/03 06:32:41;;;;;;;;;;;;;;;19.91;52.79;97380.43;617519;228;66595;-60
2023/05/03 06:35:08;;;;;;;;;;;;;;;19.91;56.54;97375.89;616088;227;65164;-60
2023/05/03 06:37:37;;;;;;;;;;;;;;;19.91;56.04;97388.44;618337;228;66629;-60
2023/05/03 06:40:06;;;;;;;;;;;;;;;19.91;55.57;97410.57;618863;227;69128;-59
2023/05/03 06:42:36;;;;;;;;;;;;;;;19.92;54.23;97414.86;621237;227;42171;-59
2023/05/03 06:45:07;;;;;;;;;;;;;;;19.94;54.93;97422.59;620070;227;47135;-59
2023/05/03 06:47:36;;;;;;;;;;;;;;;19.97;54.98;97427.45;619078;227;50228;-59
2023/05/03 06:50:04;;;;;;;;;;;;;;;19.98;52.87;97431.72;619082;227;64839;-59
2023/05/03 06:52:32;;;;;;;;;;;;;;;19.99;52.58;97416.51;618521;229;66327;-59
2023/05/03 06:55:00;;;;;;;;;;;;;;;20.01;51.26;97415.20;618443;225;68319;-59
2023/05/03 06:57:27;;;;;;;;;;;;;;;20.04;50.90;97421.89;618029;229;62904;-59
2023/05/03 06:59:55;;;;;;;;;;;;;;;20.05;52.57;97416.31;618295;229;68483;-59
2023/05/03 07:02:24;;;;;;;;;;;;;;;20.07;50.72;97419.51;619295;227;68474;-59
2023/05/03 07:04:52;;;;;;;;;;;;;;;20.09;50.54;97411.27;615242;228;65039;-59
2023/05/03 07:07:19;;;;;;;;;;;;;;;20.11;50.48;97409.16;617544;228;68440;-59
2023/05/03 07:09:47;;;;;;;;;;;;;;;20.13;50.26;97399.00;617715;228;68534;-59
2023/05/03 07:12:15;;;;;;;;;;;;;;;20.15;50.21;97403.03;615515;229;65048;-59
2023/05/03 07:14:43;;;;;;;;;;;;;;;20.17;50.20;97406.25;617043;226;66707;-59
2023/05/03 07:17:10;;;;;;;;;;;;;;;20.20;50.13;97398.80;620498;227;68886;-59
2023/05/03 07:19:38;;;;;;;;;;;;;;;20.21;50.10;97395.06;618521;227;65013;-59
2023/05/03 07:22:06;;;;;;;;;;;;;;;20.23;50.08;97399.09;618773;228;68780;-59
2023/05/03 07:24:33;;;;;;;;;;;;;;;20.26;50.10;97389.77;615825;228;68767;-59
2023/05/03 07:27:01;;;;;;;;;;;;;;;20.28;50.12;97387.66;619095;228;64907;-60
2023/05/03 07:29:28;;;;;;;;;;;;;;;20.31;50.12;97387.13;618769;227;68763;-59
2023/05/03 07:31:56;;;;;;;;;;;;;;;20.33;50.14;97379.68;618023;228;68668;-59
2023/05/03 07:34:23;;;;;;;;;;;;;;;20.34;50.09;97374.06;617038;228;65040;-59
2023/05/03 07:36:54;;;;;;;;;;;;;;;20.36;50.07;97377.29;617484;227;68428;-58
2023/05/03 07:39:22;;;;;;;;;;;;;;;20.39;50.18;97379.44;618709;227;68694;-58
2023/05/03 07:41:50;;;;;;;;;;;;;;;20.41;50.09;97373.86;618831;228;65182;-59
2023/05/03 07:44:17;;;;;;;;;;;;;;;20.44;50.07;97375.21;617548;228;66780;-60
2023/05/03 07:46:44;;;;;;;;;;;;;;;20.46;50.17;97371.22;616171;227;68672;-59
2023/05/03 07:49:12;;;;;;;;;;;;;;;20.48;50.14;97376.28;617934;228;65049;-59
2023/05/03 07:51:40;;;;;;;;;;;;;;;20.49;50.21;97357.34;616527;227;68771;-59
2023/05/03 07:54:07;;;;;;;;;;;;;;;20.52;50.06;97361.38;618651;228;68721;-59
2023/05/03 07:56:35;;;;;;;;;;;;;;;20.54;50.16;97349.41;617473;228;63043;-59
2023/05/03 07:59:02;;;;;;;;;;;;;;;20.57;49.97;97334.70;617626;228;68437;-59
2023/05/03 08:01:30;;;;;;;;;;;;;;;20.58;50.02;97339.00;617706;228;66210;-59
2023/05/03 08:03:58;;;;;;;;;;;;;;;20.61;49.91;97347.28;617704;228;65076;-59
2023/05/03 08:06:26;;;;;;;;;;;;;;;20.64;50.04;97345.16;617692;228;68387;-59
2023/05/03 08:08:54;;;;;;;;;;;;;;;20.66;49.95;97346.51;617783;228;68433;-59
2023/05/03 08:11:21;;;;;;;;;;;;;;;20.68;49.88;97343.56;617653;228;63808;-59
2023/05/03 08:13:49;;;;;;;;;;;;;;;20.71;49.87;97343.07;617715;228;68138;-59
2023/05/03 08:16:16;;;;;;;;;;;;;;;20.73;49.93;97338.25;617766;228;68477;-59
2023/05/03 08:18:45;;;;;;;;;;;;;;;20.75;49.87;97336.13;617807;228;65137;-59
2023/05/03 08:21:13;;;;;;;;;;;;;;;20.77;49.99;97339.34;616126;227;68569;-59
2023/05/03 08:23:41;;;;;;;;;;;;;;;20.81;49.92;97340.41;611143;228;67036;-59
2023/05/03 08:26:09;;;;;;;;;;;;;;;20.82;49.89;97348.18;615719;230;65111;-59
2023/05/03 08:28:37;;;;;;;;;;;;;;;20.85;49.93;97344.19;615692;228;68460;-59
2023/05/03 08:31:06;;;;;;;;;;;;;;;20.87;49.87;97343.91;617525;228;66548;-59
2023/05/03 08:33:34;;;;;;;;;;;;;;;20.90;49.78;97348.72;617610;228;65066;-59
2023/05/03 08:36:01;;;;;;;;;;;;;;;20.92;49.69;97351.94;617684;228;68503;-60
2023/05/03 08:38:30;;;;;;;;;;;;;;;20.94;49.72;97353.29;619714;228;68483;-60
2023/05/03 08:40:59;;;;;;;;;;;;;;;20.97;49.67;97354.64;617663;228;62965;-60
2023/05/03 08:43:27;;;;;;;;;;;;;;;20.98;49.53;97348.22;615510;228;68528;-59
2023/05/03 08:45:55;;;;;;;;;;;;;;;21.00;49.61;97352.23;616233;229;68364;-59
2023/05/03 08:48:22;;;;;;;;;;;;;;;21.03;49.55;97361.59;617776;228;62531;-60
2023/05/03 08:50:52;;;;;;;;;;;;;;;21.04;49.63;97364.02;620166;227;68333;-57
2023/05/03 08:53:20;;;;;;;;;;;;;;;21.11;49.50;97368.30;616078;228;68465;-58
2023/05/03 08:55:48;;;;;;;;;;;;;;;21.11;49.86;97366.43;618384;229;64979;-58
2023/05/03 08:58:15;;;;;;;;;;;;;;;21.12;50.07;97375.27;619758;228;68761;-58
2023/05/03 09:00:43;;;;;;;;;;;;;;;21.15;50.17;97374.75;619111;228;69246;-58
2023/05/03 09:03:11;;;;;;;;;;;;;;;21.15;50.20;97364.85;621185;227;65069;-58
2023/05/03 09:05:40;;;;;;;;;;;;;;;21.16;50.20;97366.45;619077;227;66569;-58
2023/05/03 09:08:08;;;;;;;;;;;;;;;21.18;50.27;97369.67;618449;229;68393;-58
2023/05/03 09:10:40;;;;;;;;;;;;;;;21.20;50.39;97372.09;618498;229;65013;-59
2023/05/03 09:13:08;;;;;;;;;;;;;;;21.21;50.36;97358.45;620037;228;66402;-58
2023/05/03 09:15:36;;;;;;;;;;;;;;;21.23;50.47;97353.65;617508;228;68562;-58
2023/05/03 09:18:08;;;;;;;;;;;;;;;21.24;50.38;97349.89;617757;228;65014;-59
2023/05/03 09:20:36;;;;;;;;;;;;;;;21.26;50.46;97349.64;616366;227;66103;-58
2023/05/03 09:23:03;;;;;;;;;;;;;;;21.27;50.44;97341.34;617477;228;66504;-58
2023/05/03 09:25:41;;;;;;;;;;;;;;;21.28;50.46;97342.97;619634;227;63127;-58
2023/05/03 09:28:09;;;;;;;;;;;;;;;21.30;50.55;97345.36;617879;226;68448;-58
2023/05/03 09:30:36;;;;;;;;;;;;;;;21.32;50.36;97340.56;617563;228;68394;-58
2023/05/03 09:33:04;;;;;;;;;;;;;;;21.30;50.25;97356.05;617099;227;65275;-58
2023/05/03 09:35:32;;;;;;;;;;;;;;;21.33;50.34;97349.37;617680;228;68571;-57
2023/05/03 09:38:00;;;;;;;;;;;;;;;21.35;50.09;97350.72;617836;228;67962;-58
2023/05/03 09:40:28;;;;;;;;;;;;;;;21.36;50.34;97349.67;617782;227;66279;-57
2023/05/03 09:43:06;;;;;;;;;;;;;;;21.38;49.88;97357.44;614831;229;68332;-58
2023/05/03 09:45:35;;;;;;;;;;;;;;;21.39;49.93;97356.36;616498;228;68839;-57
2023/05/03 09:48:03;;;;;;;;;;;;;;;21.39;51.02;97332.30;615907;227;65207;-58
2023/05/03 09:50:32;;;;;;;;;;;;;;;21.40;49.82;97328.58;614317;230;68540;-58
2023/05/03 09:53:02;;;;;;;;;;;;;;;21.41;50.04;97330.17;617309;228;66445;-58
2023/05/03 09:55:32;;;;;;;;;;;;;;;21.42;49.67;97334.47;616759;226;64974;-57
2023/05/03 09:57:59;;;;;;;;;;;;;;;21.42;50.21;97323.77;615956;228;66540;-57
2023/05/03 10:00:29;;;;;;;;;;;;;;;21.42;50.34;97321.90;617468;228;68492;-58
2023/05/03 10:02:58;;;;;;;;;;;;;;;21.43;49.91;97328.84;612181;229;62991;-56
2023/05/03 10:05:27;;;;;;;;;;;;;;;21.44;49.99;97318.94;618382;228;68353;-57
2023/05/03 10:07:56;;;;;;;;;;;;;;;21.44;49.60;97319.77;615131;228;66406;-57
2023/05/03 10:10:25;;;;;;;;;;;;;;;21.44;51.00;97309.08;616568;226;64963;-57
2023/05/03 10:12:53;;;;;;;;;;;;;;;21.44;49.74;97295.70;621047;224;66637;-57
2023/05/03 10:15:22;;;;;;;;;;;;;;;21.45;49.73;97278.58;626839;225;68307;-57
2023/05/03 10:17:51;;;;;;;;;;;;;;;21.46;51.61;97282.05;626783;226;65072;-58
2023/05/03 10:20:23;;;;;;;;;;;;;;;21.46;52.82;97280.17;627637;225;73941;-57
2023/05/03 10:23:08;;;;;;;;;;;;;;;21.45;51.15;97273.23;626992;225;68104;-57
2023/05/03 10:25:36;;;;;;;;;;;;;;;21.45;52.00;97275.91;626916;225;65113;-57
2023/05/03 10:28:05;;;;;;;;;;;;;;;21.47;53.05;97281.80;627917;225;68685;-57
2023/05/03 10:30:39;;;;;;;;;;;;;;;21.46;50.98;97277.50;627731;225;68246;-57
2023/05/03 10:33:11;;;;;;;;;;;;;;;21.48;51.95;97278.05;626963;225;62967;-57
2023/05/03 10:35:40;;;;;;;;;;;;;;;21.48;49.89;97283.39;626810;226;68350;-56
2023/05/03 10:38:14;;;;;;;;;;;;;;;21.50;49.44;97281.27;627512;225;68177;-57
2023/05/03 10:40:42;;;;;;;;;;;;;;;21.50;49.57;97275.91;627588;225;63005;-57
2023/05/03 10:43:28;;;;;;;;;;;;;;;21.52;50.17;97266.81;626717;225;66277;-57
2023/05/03 10:46:02;;;;;;;;;;;;;;;21.52;50.18;97267.61;628419;225;68650;-57
2023/05/03 10:48:30;;;;;;;;;;;;;;;21.53;50.51;97263.09;627804;225;62984;-57
2023/05/03 10:50:59;;;;;;;;;;;;;;;21.53;50.61;97263.88;626849;225;66398;-57
2023/05/03 10:53:41;;;;;;;;;;;;;;;21.54;49.62;97278.84;626483;226;67817;-58
2023/05/03 10:56:14;;;;;;;;;;;;;;;21.56;51.12;97267.89;614639;227;62195;-57
2023/05/03 10:58:43;;;;;;;;;;;;;;;21.56;50.05;97267.89;622041;225;68666;-57
2023/05/03 11:01:12;;;;;;;;;;;;;;;21.56;49.87;97268.69;627484;225;66455;-57
2023/05/03 11:03:59;;;;;;;;;;;;;;;21.57;50.22;97270.28;626954;225;65218;-57
2023/05/03 11:06:27;;;;;;;;;;;;;;;21.58;50.46;97281.78;627857;225;66039;-57
2023/05/03 11:08:55;;;;;;;;;;;;;;;21.58;50.23;97281.78;626626;225;65985;-57
2023/05/03 11:11:23;;;;;;;;;;;;;;;21.59;51.14;97280.72;627177;225;65214;-58
2023/05/03 11:13:51;;;;;;;;;;;;;;;21.58;49.81;97282.60;626244;226;68475;-57
2023/05/03 11:16:19;;;;;;;;;;;;;;;21.59;50.68;97280.72;627095;225;68263;-58
2023/05/03 11:18:47;;;;;;;;;;;;;;;21.59;50.30;97278.84;626495;226;63003;-57
2023/05/03 11:21:15;;;;;;;;;;;;;;;21.59;50.68;97276.17;619915;225;68234;-58
2023/05/03 11:23:43;;;;;;;;;;;;;;;21.61;50.60;97270.56;618297;226;71151;-57
2023/05/03 11:26:11;;;;;;;;;;;;;;;21.60;50.14;97271.63;626616;226;62902;-58
2023/05/03 11:28:40;;;;;;;;;;;;;;;21.61;50.60;97270.56;627211;225;68804;-57
2023/05/03 11:31:12;;;;;;;;;;;;;;;21.61;49.95;97273.24;626732;225;68435;-57
2023/05/03 11:33:41;;;;;;;;;;;;;;;21.62;50.15;97272.16;626839;225;65305;-58
2023/05/03 11:36:09;;;;;;;;;;;;;;;21.63;50.59;97265.73;627427;225;68496;-58
2023/05/03 11:38:38;;;;;;;;;;;;;;;21.63;50.86;97260.38;627449;225;68438;-58
2023/05/03 11:41:11;;;;;;;;;;;;;;;21.63;50.87;97257.70;628060;225;62984;-57
2023/05/03 11:43:42;;;;;;;;;;;;;;;21.64;51.32;97253.98;626470;225;68474;-58
2023/05/03 11:46:10;;;;;;;;;;;;;;;21.63;50.09;97244.34;627185;225;68333;-58
2023/05/03 11:48:38;;;;;;;;;;;;;;;21.63;51.49;97247.01;627718;225;65096;-57
2023/05/03 11:51:12;;;;;;;;;;;;;;;21.63;50.64;97241.66;626784;226;68444;-57
2023/05/03 11:53:44;;;;;;;;;;;;;;;21.63;50.68;97241.66;628102;225;66356;-58
2023/05/03 11:56:16;;;;;;;;;;;;;;;21.64;50.58;97245.95;626497;226;62870;-58
2023/05/03 11:58:51;;;;;;;;;;;;;;;21.64;51.11;97237.94;627822;225;65879;-58
2023/05/03 12:01:22;;;;;;;;;;;;;;;21.64;50.38;97237.94;626424;225;69070;-57
2023/05/03 12:03:52;;;;;;;;;;;;;;;21.65;50.46;97234.17;628185;225;65094;-57
2023/05/03 12:06:20;;;;;;;;;;;;;;;21.66;50.58;97235.77;626455;226;68536;-58
2023/05/03 12:08:48;;;;;;;;;;;;;;;21.64;50.77;97233.38;626684;226;68527;-58
2023/05/03 12:11:15;;;;;;;;;;;;;;;21.65;51.16;97232.30;628109;225;64789;-58
2023/05/03 12:13:42;;;;;;;;;;;;;;;21.65;50.52;97220.80;627035;225;68749;-58
2023/05/03 12:16:13;;;;;;;;;;;;;;;21.65;50.07;97218.13;627784;225;66986;-58
2023/05/03 12:18:53;;;;;;;;;;;;;;;21.65;50.55;97218.92;627959;225;63745;-58
2023/05/03 12:21:20;;;;;;;;;;;;;;;21.66;50.07;97219.72;628492;225;66755;-58
2023/05/03 12:23:49;;;;;;;;;;;;;;;21.66;50.12;97209.02;626958;225;68684;-58
2023/05/03 12:26:18;;;;;;;;;;;;;;;21.65;50.52;97210.90;626821;226;63783;-59
2023/05/03 12:28:46;;;;;;;;;;;;;;;21.65;51.19;97202.88;627089;225;68631;-58
2023/05/03 12:31:14;;;;;;;;;;;;;;;21.65;50.83;97200.20;626304;226;68652;-58
2023/05/03 12:33:42;;;;;;;;;;;;;;;21.66;51.10;97203.67;626183;226;65384;-59
2023/05/03 12:36:09;;;;;;;;;;;;;;;21.66;50.21;97196.47;626205;226;68453;-58
2023/05/03 12:38:37;;;;;;;;;;;;;;;21.66;50.60;97198.33;626935;225;66432;-58
2023/05/03 12:41:04;;;;;;;;;;;;;;;21.67;51.15;97189.25;626571;225;65107;-58
2023/05/03 12:43:32;;;;;;;;;;;;;;;21.68;50.31;97185.48;625546;225;69030;-58
2023/05/03 12:46:01;;;;;;;;;;;;;;;21.67;50.25;97183.89;617908;228;69648;-58
2023/05/03 12:48:29;;;;;;;;;;;;;;;21.67;50.97;97183.89;619264;229;62940;-59
2023/05/03 12:50:57;;;;;;;;;;;;;;;21.68;50.47;97172.11;619938;228;68750;-58
2023/05/03 12:53:25;;;;;;;;;;;;;;;21.67;50.94;97176.67;619214;228;68819;-59
2023/05/03 12:55:53;;;;;;;;;;;;;;;21.67;51.44;97173.20;620881;228;65125;-58